Time;durP1;ratioP1;P1;durP2;ratioP2;P2;SDS_P1;SDS_P2;PMS_P1;PMS_P2;Temp;Humidity;BMP_temperature;BMP_pressure;BME280_temperature;BME280_humidity;BME280_pressure;Samples;Min_cycle;Max_cycle;Signal;HPM_P1;HPM_P2
2023/01/21 00:00:26;;;;;;;56.80;21.27;;;-1.20;99.90;;;;;;5033157;28;20045;-86
2023/01/21 00:02:58;;;;;;;54.33;21.77;;;-2.10;99.90;;;;;;5033033;23;20061;-86
2023/01/21 00:05:49;;;;;;;47.43;20.60;;;-0.90;99.90;;;;;;4975809;28;20133;-86
2023/01/21 00:08:27;;;;;;;51.60;21.17;;;-1.80;99.90;;;;;;4993606;28;20055;-86
2023/01/21 00:11:06;;;;;;;50.10;20.47;;;-1.30;99.90;;;;;;4975842;28;20046;-86
2023/01/21 00:13:38;;;;;;;58.20;22.33;;;-2.20;99.90;;;;;;4975798;28;20056;-86
2023/01/21 00:16:13;;;;;;;53.70;19.97;;;-2.10;99.90;;;;;;4994025;28;20451;-86
2023/01/21 00:18:39;;;;;;;49.47;20.10;;;-2.00;99.90;;;;;;4993515;28;20065;-86
2023/01/21 00:21:10;;;;;;;52.90;20.73;;;-2.40;99.90;;;;;;4993858;28;20494;-85
2023/01/21 00:23:45;;;;;;;47.30;19.70;;;-2.10;99.90;;;;;;4971129;28;20034;-86
2023/01/21 00:26:26;;;;;;;51.63;21.17;;;-1.40;99.90;;;;;;4975030;28;20046;-85
2023/01/21 00:29:13;;;;;;;52.33;20.37;;;-1.90;99.90;;;;;;4993673;28;20046;-86
2023/01/21 00:31:45;;;;;;;51.73;20.50;;;-3.90;99.90;;;;;;4993855;28;20560;-85
2023/01/21 00:34:11;;;;;;;52.33;19.73;;;-2.10;99.90;;;;;;4991977;28;20087;-86
2023/01/21 00:36:36;;;;;;;54.00;20.47;;;-2.10;99.90;;;;;;4976069;28;20496;-86
2023/01/21 00:39:08;;;;;;;53.30;20.93;;;-2.10;99.90;;;;;;4975996;28;20383;-85
2023/01/21 00:41:46;;;;;;;50.80;20.87;;;-1.90;99.90;;;;;;4976325;28;20491;-85
2023/01/21 00:44:15;;;;;;;51.30;20.87;;;-2.50;99.90;;;;;;4976175;28;20394;-86
2023/01/21 00:46:41;;;;;;;53.57;20.60;;;-0.70;99.90;;;;;;4992968;28;20034;-86
2023/01/21 00:49:21;;;;;;;48.40;19.67;;;-2.50;99.90;;;;;;4976114;28;20513;-86
2023/01/21 00:52:03;;;;;;;52.10;20.13;;;-0.90;99.90;;;;;;4993037;28;20034;-86
2023/01/21 00:54:38;;;;;;;54.77;20.57;;;-2.10;99.90;;;;;;4974723;28;20419;-86
2023/01/21 00:57:16;;;;;;;54.93;20.73;;;0.10;99.90;;;;;;4975651;28;20498;-86
2023/01/21 01:00:00;;;;;;;60.53;23.13;;;-2.50;99.90;;;;;;4975304;28;20046;-85
2023/01/21 01:02:40;;;;;;;;;;;-0.60;99.90;;;;;;4992919;28;20046;-86
2023/01/21 01:05:07;;;;;;;59.27;21.77;;;-0.20;99.90;;;;;;4973558;28;19922;-86
2023/01/21 01:07:46;;;;;;;58.73;21.63;;;-2.00;99.90;;;;;;4974501;28;20034;-86
2023/01/21 01:10:12;;;;;;;64.03;22.97;;;-2.00;99.90;;;;;;4975576;28;20050;-86
2023/01/21 01:12:52;;;;;;;59.97;23.00;;;-1.90;99.90;;;;;;4976020;28;20038;-86
2023/01/21 01:15:30;;;;;;;61.60;22.67;;;-0.10;99.90;;;;;;4974592;28;20057;-86
2023/01/21 01:17:55;;;;;;;59.47;21.93;;;-0.80;99.90;;;;;;4993215;28;20038;-85
2023/01/21 01:20:24;;;;;;;62.30;22.93;;;-0.70;99.90;;;;;;4975172;28;20490;-86
2023/01/21 01:23:04;;;;;;;62.73;22.13;;;-1.60;99.90;;;;;;4975538;28;20487;-86
2023/01/21 01:25:43;;;;;;;71.27;24.37;;;-2.00;99.90;;;;;;4993202;28;20077;-85
2023/01/21 01:28:19;;;;;;;;;;;;;;;;;;;;;
2023/01/21 01:31:15;;;;;;;66.57;23.53;;;-1.40;99.90;;;;;;4917152;28;20072;-86
2023/01/21 01:33:58;;;;;;;66.87;24.47;;;-1.80;99.90;;;;;;4992589;28;20471;-85
2023/01/21 01:36:42;;;;;;;70.50;25.42;;;-2.00;99.90;;;;;;4974550;28;20510;-86
2023/01/21 01:39:27;;;;;;;66.77;25.47;;;-2.10;99.90;;;;;;4992697;28;20076;-86
2023/01/21 01:41:53;;;;;;;70.33;23.53;;;-1.50;99.90;;;;;;4992163;28;20406;-86
2023/01/21 01:45:08;;;;;;;71.83;25.40;;;-1.20;99.90;;;;;;4975093;28;20054;-86
2023/01/21 01:48:00;;;;;;;73.57;25.10;;;-1.70;99.90;;;;;;4979160;28;20442;-86
2023/01/21 01:50:42;;;;;;;66.17;24.97;;;-0.90;99.90;;;;;;5000631;28;20047;-86
2023/01/21 01:53:30;;;;;;;74.70;26.67;;;-2.10;99.90;;;;;;5004545;28;20015;-86
2023/01/21 01:56:11;;;;;;;75.17;26.57;;;-1.90;99.90;;;;;;4983418;28;20046;-86
2023/01/21 01:58:38;;;;;;;66.97;24.33;;;-2.00;99.90;;;;;;4998001;28;20533;-86
2023/01/21 02:01:09;;;;;;;78.60;27.53;;;-0.80;99.90;;;;;;4996846;28;20078;-86
2023/01/21 02:04:03;;;;;;;81.90;26.53;;;-1.50;99.90;;;;;;4995178;28;20152;-86
2023/01/21 02:07:21;;;;;;;80.47;25.73;;;-2.50;99.90;;;;;;4978314;28;20055;-86
2023/01/21 02:10:07;;;;;;;81.20;28.27;;;-1.20;99.90;;;;;;4901009;29;20067;-86
2023/01/21 02:12:51;;;;;;;78.43;26.13;;;-1.50;99.90;;;;;;4916831;29;20060;-86
2023/01/21 02:15:40;;;;;;;72.38;24.10;;;-2.10;99.90;;;;;;4900607;29;20059;-86
2023/01/21 02:19:09;;;;;;;96.70;27.50;;;-1.90;99.90;;;;;;4916765;29;20519;-85
2023/01/21 02:22:31;;;;;;;86.03;27.33;;;-1.30;99.90;;;;;;4917014;29;20075;-86
2023/01/21 02:25:39;;;;;;;81.50;27.17;;;-1.20;99.90;;;;;;4914637;29;20087;-86
2023/01/21 02:28:55;;;;;;;89.50;28.07;;;-1.20;99.90;;;;;;5003120;22;20421;-86
2023/01/21 02:31:39;;;;;;;83.67;26.07;;;-2.30;99.90;;;;;;5014481;28;20398;-86
2023/01/21 02:34:30;;;;;;;86.67;28.03;;;-1.60;99.90;;;;;;4997912;28;20437;-85
2023/01/21 02:37:33;;;;;;;96.10;27.67;;;-0.50;99.90;;;;;;5015698;28;20077;-86
2023/01/21 02:40:43;;;;;;;94.73;27.73;;;-2.30;99.90;;;;;;4996699;28;20490;-85
2023/01/21 02:43:27;;;;;;;108.40;26.63;;;-1.60;99.90;;;;;;4998356;28;20068;-86
2023/01/21 02:46:15;;;;;;;89.80;27.90;;;-1.80;99.90;;;;;;4996536;28;20125;-86
2023/01/21 02:49:04;;;;;;;85.50;25.73;;;-1.80;99.90;;;;;;4997697;28;20069;-86
2023/01/21 02:51:30;;;;;;;92.73;24.20;;;-1.60;99.90;;;;;;4997618;28;20097;-86
2023/01/21 02:54:37;;;;;;;81.53;25.10;;;-1.90;99.90;;;;;;4996495;28;20124;-85
2023/01/21 02:57:16;;;;;;;100.73;26.90;;;-1.50;99.90;;;;;;4896446;29;20063;-85
2023/01/21 02:59:54;;;;;;;102.07;25.80;;;-1.80;99.90;;;;;;4881152;29;20057;-85
2023/01/21 03:03:05;;;;;;;127.40;26.67;;;-1.60;99.90;;;;;;4899359;29;20096;-86
2023/01/21 03:05:54;;;;;;;92.77;25.17;;;-1.50;99.90;;;;;;4964048;28;20073;-86
2023/01/21 03:08:38;;;;;;;78.37;25.50;;;-1.60;99.90;;;;;;5014269;28;20485;-85
2023/01/21 03:11:26;;;;;;;104.15;26.50;;;-1.50;99.90;;;;;;4997078;28;20053;-85
2023/01/21 03:17:35;;;;;;;91.97;25.15;;;-1.80;99.90;;;;;;5014516;28;20052;-86
2023/01/21 03:20:08;;;;;;;100.87;26.03;;;-1.50;99.90;;;;;;4996534;28;20067;-85
2023/01/21 03:22:59;;;;;;;97.00;25.43;;;-1.80;99.90;;;;;;4997042;28;20048;-86
2023/01/21 03:25:28;;;;;;;89.03;25.60;;;-1.80;99.90;;;;;;5013704;28;20544;-85
2023/01/21 03:28:03;;;;;;;90.67;26.03;;;0.00;99.90;;;;;;4999160;28;20129;-86
2023/01/21 03:30:53;;;;;;;82.13;24.90;;;0.50;99.90;;;;;;4976716;28;20546;-86
2023/01/21 03:33:38;;;;;;;87.57;25.70;;;-0.20;99.90;;;;;;4993162;28;20050;-85
2023/01/21 03:36:12;;;;;;;108.40;27.00;;;-1.20;99.90;;;;;;4976488;28;20167;-85
2023/01/21 03:38:52;;;;;;;89.57;25.80;;;-1.20;99.90;;;;;;4977299;28;20101;-85
2023/01/21 03:41:22;;;;;;;97.70;26.03;;;-1.90;99.90;;;;;;4992198;28;20074;-85
2023/01/21 03:44:03;;;;;;;92.53;26.90;;;-1.00;99.90;;;;;;4993359;28;20085;-86
2023/01/21 03:47:09;;;;;;;96.77;27.23;;;0.70;99.90;;;;;;4976757;28;20050;-86
2023/01/21 03:50:00;;;;;;;111.17;26.47;;;-1.30;99.90;;;;;;4976706;28;20109;-86
2023/01/21 03:52:29;;;;;;;88.20;25.93;;;-1.30;99.90;;;;;;4976496;28;20050;-85
2023/01/21 03:55:07;;;;;;;102.73;26.17;;;-0.90;99.90;;;;;;4977135;28;20092;-86
2023/01/21 03:57:33;;;;;;;106.63;28.37;;;-0.20;99.90;;;;;;4971391;28;20046;-85
2023/01/21 04:00:14;;;;;;;114.90;28.57;;;-1.60;99.90;;;;;;4994314;28;20437;-86
2023/01/21 04:02:40;;;;;;;93.43;25.77;;;-1.30;99.90;;;;;;4992207;28;20061;-85
2023/01/21 04:05:15;;;;;;;103.10;28.13;;;-0.20;99.90;;;;;;4993856;28;20117;-86
2023/01/21 04:07:59;;;;;;;86.80;25.93;;;-0.60;99.90;;;;;;4976865;28;20050;-86
2023/01/21 04:10:24;;;;;;;95.95;26.73;;;-1.60;99.90;;;;;;4975835;28;20402;-85
2023/01/21 04:13:05;;;;;;;92.40;26.43;;;-1.40;99.90;;;;;;4994003;28;20038;-85
2023/01/21 04:15:46;;;;;;;83.83;23.57;;;-1.60;99.90;;;;;;4976038;28;20174;-86
2023/01/21 04:18:11;;;;;;;75.97;24.73;;;0.00;99.90;;;;;;4975567;28;20046;-85
2023/01/21 04:20:59;;;;;;;81.23;24.80;;;-1.50;99.90;;;;;;4993850;28;20045;-85
2023/01/21 04:23:24;;;;;;;78.33;26.07;;;-0.60;99.90;;;;;;4992991;28;20042;-86
2023/01/21 04:26:08;;;;;;;94.67;26.40;;;0.00;99.90;;;;;;4993176;28;20048;-86
2023/01/21 04:28:34;;;;;;;77.18;24.60;;;0.10;99.90;;;;;;4975169;28;20094;-86
2023/01/21 04:31:09;;;;;;;84.57;25.00;;;-0.90;99.90;;;;;;4956323;28;20082;-85
2023/01/21 04:33:35;;;;;;;93.53;25.47;;;-1.30;99.90;;;;;;4956669;28;20379;-86
2023/01/21 04:36:00;;;;;;;82.10;24.80;;;-0.80;99.90;;;;;;4973613;28;20053;-85
2023/01/21 04:38:44;;;;;;;85.70;25.23;;;-1.80;99.90;;;;;;4955284;28;20039;-85
2023/01/21 04:41:09;;;;;;;91.30;25.30;;;-1.80;99.90;;;;;;4956684;28;20062;-85
2023/01/21 04:43:53;;;;;;;81.23;25.27;;;-0.60;99.90;;;;;;4956862;28;20561;-86
2023/01/21 04:46:18;;;;;;;70.35;23.17;;;-0.80;99.90;;;;;;4973148;28;20375;-85
2023/01/21 04:48:55;;;;;;;87.50;25.00;;;-1.40;99.90;;;;;;4973664;28;20049;-85
2023/01/21 04:51:21;;;;;;;82.13;24.63;;;-1.20;99.90;;;;;;4956498;28;20047;-85
2023/01/21 04:53:51;;;;;;;76.43;23.23;;;-2.10;99.90;;;;;;4973199;28;20054;-85
2023/01/21 04:56:22;;;;;;;76.83;23.17;;;-1.80;99.90;;;;;;4962207;28;20086;-86
2023/01/21 04:59:10;;;;;;;79.60;23.87;;;-2.70;99.90;;;;;;4981492;28;20027;-86
2023/01/21 05:01:51;;;;;;;71.27;23.03;;;-1.30;99.90;;;;;;4963845;28;20129;-86
2023/01/21 05:04:17;;;;;;;79.43;24.13;;;-1.90;99.90;;;;;;4957553;28;20042;-86
2023/01/21 05:06:58;;;;;;;70.70;22.47;;;-2.10;99.90;;;;;;4955626;28;20057;-85
2023/01/21 05:09:23;;;;;;;72.47;22.03;;;-2.40;99.90;;;;;;4956141;28;20055;-85
2023/01/21 05:14:56;;;;;;;73.57;23.07;;;-2.30;99.90;;;;;;4955610;28;20039;-86
2023/01/21 05:17:40;;;;;;;77.53;23.87;;;-2.00;99.90;;;;;;4956063;28;20062;-86
2023/01/21 05:20:06;;;;;;;68.82;23.70;;;-2.40;99.90;;;;;;4951908;28;20395;-85
2023/01/21 05:22:38;;;;;;;80.57;23.97;;;-1.70;99.90;;;;;;4976143;28;20043;-86
2023/01/21 05:25:04;;;;;;;80.33;25.27;;;-2.10;99.90;;;;;;4959919;28;20045;-85
2023/01/21 05:27:52;;;;;;;73.93;24.27;;;-1.60;99.90;;;;;;4986561;28;20111;-85
2023/01/21 05:30:18;;;;;;;80.57;24.37;;;-1.50;99.90;;;;;;4979262;28;20443;-85
2023/01/21 05:32:59;;;;;;;86.83;24.93;;;-1.50;99.90;;;;;;5011316;23;20054;-85
2023/01/21 05:35:25;;;;;;;80.47;23.53;;;-1.90;99.90;;;;;;5015556;28;20081;-86
2023/01/21 05:38:05;;;;;;;80.27;24.97;;;-1.80;99.90;;;;;;5016699;28;20078;-86
2023/01/21 05:40:50;;;;;;;77.00;23.90;;;-1.70;99.90;;;;;;4999017;28;20050;-86
2023/01/21 05:43:16;;;;;;;71.57;24.30;;;0.00;99.90;;;;;;4998532;28;20045;-86
2023/01/21 05:46:00;;;;;;;81.97;24.47;;;-1.00;99.90;;;;;;5016229;28;20042;-86
2023/01/21 05:48:27;;;;;;;70.00;23.77;;;-0.10;99.90;;;;;;4998126;28;20050;-86
2023/01/21 05:51:09;;;;;;;66.50;23.77;;;-0.90;99.90;;;;;;4998719;28;20053;-86
2023/01/21 05:53:34;;;;;;;71.17;24.17;;;0.80;99.90;;;;;;5015962;28;20061;-86
2023/01/21 05:56:00;;;;;;;75.97;24.07;;;-1.00;99.90;;;;;;5014747;28;20050;-86
2023/01/21 06:01:30;;;;;;;72.27;24.03;;;-1.90;99.90;;;;;;4997969;28;20049;-86
2023/01/21 06:03:56;;;;;;;77.03;24.98;;;-1.00;99.90;;;;;;4997770;28;20126;-85
2023/01/21 06:06:31;;;;;;;72.97;23.50;;;-0.60;99.90;;;;;;4998052;28;20049;-86
2023/01/21 06:08:57;;;;;;;72.07;24.00;;;-0.60;99.90;;;;;;4997429;28;20053;-86
2023/01/21 06:11:35;;;;;;;71.00;24.13;;;-1.00;99.90;;;;;;4998098;28;20153;-85
2023/01/21 06:14:19;;;;;;;71.43;23.50;;;0.00;99.90;;;;;;5015887;28;20056;-85
2023/01/21 06:16:44;;;;;;;79.15;24.23;;;-0.30;99.90;;;;;;5029475;28;20045;-85
2023/01/21 06:19:17;;;;;;;66.43;24.20;;;-0.20;99.90;;;;;;4998370;28;20046;-85
2023/01/21 06:21:58;;;;;;;72.80;25.17;;;-0.30;99.90;;;;;;5016090;28;20045;-86
2023/01/21 06:24:24;;;;;;;76.80;25.70;;;0.50;99.90;;;;;;5014629;28;20041;-85
2023/01/21 06:26:49;;;;;;;78.30;25.77;;;-1.20;99.90;;;;;;4998234;28;20050;-86
2023/01/21 06:29:18;;;;;;;71.17;25.10;;;-1.30;99.90;;;;;;4997552;28;20034;-85
2023/01/21 06:31:44;;;;;;;69.07;23.87;;;-0.90;99.90;;;;;;5014339;28;20401;-85
2023/01/21 06:34:11;;;;;;;71.30;23.87;;;-0.20;99.90;;;;;;4999825;28;20140;-85
2023/01/21 06:36:49;;;;;;;62.23;22.73;;;-0.40;99.90;;;;;;4998870;28;20073;-85
2023/01/21 06:39:30;;;;;;;61.23;22.30;;;0.10;99.90;;;;;;5015565;28;20038;-85
2023/01/21 06:42:11;;;;;;;67.53;24.37;;;-0.40;99.90;;;;;;5016253;28;20046;-85
2023/01/21 06:44:36;;;;;;;65.03;23.63;;;-0.10;99.90;;;;;;5015926;28;20409;-85
2023/01/21 06:47:02;;;;;;;64.93;22.53;;;-0.60;99.90;;;;;;5017160;28;20113;-86
2023/01/21 06:49:28;;;;;;;66.50;22.60;;;-0.10;99.90;;;;;;5017494;28;20446;-85
2023/01/21 06:52:00;;;;;;;58.60;22.90;;;0.40;99.90;;;;;;5013368;28;20129;-85
2023/01/21 06:54:42;;;;;;;63.87;22.73;;;-0.30;99.90;;;;;;5007817;28;20048;-86
2023/01/21 06:57:07;;;;;;;63.73;23.40;;;-0.70;99.90;;;;;;5016910;28;20046;-86
2023/01/21 06:59:33;;;;;;;59.40;22.23;;;0.10;99.90;;;;;;5000854;23;20074;-85
2023/01/21 07:01:59;;;;;;;58.00;21.87;;;-1.00;99.90;;;;;;4960894;28;20062;-84
2023/01/21 07:04:26;;;;;;;68.00;23.53;;;-1.10;99.90;;;;;;4977360;28;20042;-85
2023/01/21 07:06:57;;;;;;;67.77;23.63;;;-0.70;99.90;;;;;;4977886;28;20157;-84
2023/01/21 07:09:24;;;;;;;60.90;22.37;;;-0.90;99.90;;;;;;4977031;28;20062;-86
2023/01/21 07:11:58;;;;;;;59.07;22.90;;;-0.80;99.90;;;;;;4960760;28;20093;-86
2023/01/21 07:14:43;;;;;;;62.27;23.73;;;-0.40;99.90;;;;;;4960094;28;20043;-86
2023/01/21 07:17:18;;;;;;;;;;;-0.90;99.90;;;;;;4978814;28;20055;-86
2023/01/21 07:19:43;;;;;;;;;;;-0.70;99.90;;;;;;4960883;28;20374;-86
2023/01/21 07:22:09;;;;;;;64.60;21.67;;;-0.70;99.90;;;;;;4973923;23;19928;-84
2023/01/21 07:24:34;;;;;;;62.27;21.83;;;-0.70;99.90;;;;;;4995155;28;20046;-83
2023/01/21 07:27:00;;;;;;;66.57;21.60;;;-0.70;99.90;;;;;;4978983;28;20042;-84
2023/01/21 07:29:27;;;;;;;61.27;22.13;;;-0.70;99.90;;;;;;4998314;28;20042;-82
2023/01/21 07:31:54;;;;;;;60.80;22.47;;;-0.70;99.90;;;;;;4963885;28;20054;-83
2023/01/21 07:34:19;;;;;;;66.50;25.57;;;-0.70;99.90;;;;;;4966697;28;20034;-83
2023/01/21 07:36:48;;;;;;;64.87;23.97;;;-0.60;99.90;;;;;;4981644;28;20121;-81
2023/01/21 07:39:13;;;;;;;57.00;22.50;;;-0.60;99.90;;;;;;4987632;28;20613;-82
2023/01/21 07:41:39;;;;;;;59.27;22.40;;;-0.60;99.90;;;;;;4965198;28;20031;-82
2023/01/21 07:44:05;;;;;;;60.03;22.30;;;-0.60;99.90;;;;;;4968993;28;20746;-82
2023/01/21 07:46:32;;;;;;;58.00;21.20;;;-0.60;99.90;;;;;;4971872;28;20133;-82
2023/01/21 07:48:57;;;;;;;58.73;21.60;;;-0.60;99.90;;;;;;4980061;28;20039;-82
2023/01/21 07:51:23;;;;;;;56.73;20.63;;;-0.60;99.90;;;;;;4968678;28;20116;-82
2023/01/21 07:53:48;;;;;;;56.10;20.50;;;-0.60;99.90;;;;;;4981410;28;20117;-82
2023/01/21 07:56:16;;;;;;;54.17;20.37;;;-0.60;99.90;;;;;;4970423;28;20058;-82
2023/01/21 07:58:42;;;;;;;59.83;23.70;;;-0.60;99.90;;;;;;4986710;28;20038;-83
2023/01/21 08:01:09;;;;;;;66.40;29.50;;;-0.60;99.90;;;;;;4982233;28;20483;-84
2023/01/21 08:03:35;;;;;;;64.63;27.53;;;-0.60;99.90;;;;;;4967942;28;20047;-82
2023/01/21 08:06:01;;;;;;;66.60;27.80;;;-0.50;99.90;;;;;;4995599;28;20104;-84
2023/01/21 08:08:27;;;;;;;65.20;27.37;;;-0.50;99.90;;;;;;5004141;28;20042;-83
2023/01/21 08:10:54;;;;;;;78.03;35.73;;;-0.50;99.90;;;;;;4981657;28;20047;-83
2023/01/21 08:13:20;;;;;;;60.97;26.40;;;-0.50;99.90;;;;;;4971369;28;20089;-83
2023/01/21 08:15:53;;;;;;;54.33;22.10;;;-0.40;99.90;;;;;;4968836;28;20089;-83
2023/01/21 08:18:25;;;;;;;51.92;21.17;;;-0.40;99.90;;;;;;4972609;23;20059;-83
2023/01/21 08:21:08;;;;;;;53.83;21.03;;;-0.40;99.90;;;;;;4981638;28;20047;-83
2023/01/21 08:23:33;;;;;;;49.77;18.90;;;-0.30;99.90;;;;;;4986505;28;20034;-84
2023/01/21 08:26:14;;;;;;;51.73;20.03;;;-0.40;99.90;;;;;;4986887;28;20101;-84
2023/01/21 08:28:46;;;;;;;53.33;20.50;;;-0.30;99.90;;;;;;4980107;28;20042;-84
2023/01/21 08:31:12;;;;;;;50.00;19.63;;;-0.60;99.90;;;;;;4966778;28;20093;-83
2023/01/21 08:33:38;;;;;;;51.13;20.10;;;-0.50;99.90;;;;;;4968361;28;20517;-83
2023/01/21 08:36:07;;;;;;;53.63;20.43;;;-0.30;99.90;;;;;;4981661;28;20078;-83
2023/01/21 08:38:36;;;;;;;51.13;20.17;;;-0.20;99.90;;;;;;4981781;28;20587;-83
2023/01/21 08:41:17;;;;;;;50.37;19.87;;;-0.20;99.90;;;;;;4979407;28;20035;-83
2023/01/21 08:44:05;;;;;;;56.03;21.13;;;-0.60;99.90;;;;;;4970479;28;20101;-83
2023/01/21 08:46:46;;;;;;;54.23;19.47;;;0.20;99.90;;;;;;4967189;28;20157;-84
2023/01/21 08:49:26;;;;;;;54.43;21.80;;;0.10;99.90;;;;;;4982413;28;20030;-84
2023/01/21 08:55:10;;;;;;;;;;;0.20;99.90;;;;;;4953415;28;20057;-83
2023/01/21 08:57:39;;;;;;;57.37;22.10;;;0.00;99.90;;;;;;4961921;28;20297;-83
2023/01/21 09:00:08;;;;;;;51.20;21.10;;;-0.30;99.90;;;;;;4964045;28;20399;-83
2023/01/21 09:02:34;;;;;;;56.80;21.97;;;-0.10;99.90;;;;;;4982045;28;20518;-83
2023/01/21 09:05:06;;;;;;;50.33;22.13;;;-0.20;99.90;;;;;;4963748;28;20034;-83
2023/01/21 09:07:31;;;;;;;52.13;22.17;;;-0.10;99.90;;;;;;4982023;28;20047;-83
2023/01/21 09:09:57;;;;;;;48.93;19.70;;;-0.10;99.90;;;;;;4970540;28;20121;-83
2023/01/21 09:12:23;;;;;;;48.50;20.17;;;0.00;99.90;;;;;;4982630;28;20054;-83
2023/01/21 09:14:48;;;;;;;48.20;19.77;;;0.00;99.90;;;;;;4978788;28;20101;-83
2023/01/21 09:17:14;;;;;;;46.23;20.10;;;0.00;99.90;;;;;;4979773;28;20126;-83
2023/01/21 09:19:39;;;;;;;46.97;19.27;;;0.00;99.90;;;;;;4964706;28;20133;-83
2023/01/21 09:22:06;;;;;;;46.30;18.83;;;0.00;99.90;;;;;;4965889;28;20129;-83
2023/01/21 09:24:32;;;;;;;46.07;20.13;;;0.00;99.90;;;;;;4963532;28;20042;-84
2023/01/21 09:27:01;;;;;;;49.03;19.10;;;0.10;99.90;;;;;;4962066;28;20047;-83
2023/01/21 09:29:26;;;;;;;45.63;18.63;;;0.10;99.90;;;;;;4974415;28;20402;-82
2023/01/21 09:31:52;;;;;;;46.87;19.87;;;1.30;99.90;;;;;;4976035;28;20113;-82
2023/01/21 09:34:17;;;;;;;49.83;18.70;;;1.60;99.90;;;;;;4977853;28;20492;-84
2023/01/21 09:36:43;;;;;;;46.13;18.70;;;0.10;99.90;;;;;;4972561;23;20042;-84
2023/01/21 09:39:09;;;;;;;47.90;20.37;;;0.20;99.90;;;;;;4963512;28;20050;-83
2023/01/21 09:41:52;;;;;;;47.23;19.10;;;0.20;99.90;;;;;;4980941;28;20145;-83
2023/01/21 09:44:36;;;;;;;48.47;20.05;;;0.30;99.90;;;;;;4969019;28;20042;-81
2023/01/21 09:47:06;;;;;;;;;;;0.30;99.90;;;;;;4963357;28;20046;-85
2023/01/21 09:49:43;;;;;;;45.27;17.43;;;0.30;99.90;;;;;;4964220;28;19926;-84
2023/01/21 09:52:44;;;;;;;45.97;17.53;;;0.30;99.90;;;;;;4975783;28;20038;-84
2023/01/21 09:55:20;;;;;;;44.33;17.77;;;0.40;99.90;;;;;;4978587;28;20046;-84
2023/01/21 09:58:07;;;;;;;43.60;18.13;;;0.40;99.90;;;;;;4985903;28;20043;-84
2023/01/21 10:00:55;;;;;;;43.97;18.77;;;0.40;99.90;;;;;;4978954;28;20125;-84
2023/01/21 10:03:48;;;;;;;42.93;18.07;;;0.40;99.90;;;;;;4966132;28;20059;-84
2023/01/21 10:06:59;;;;;;;44.47;19.20;;;0.40;99.90;;;;;;4979097;28;20050;-84
2023/01/21 10:10:01;;;;;;;44.03;18.30;;;0.40;99.90;;;;;;4890029;29;20084;-83
2023/01/21 10:12:54;;;;;;;44.77;18.50;;;0.50;99.90;;;;;;4965448;28;20081;-84
2023/01/21 10:15:51;;;;;;;46.33;18.30;;;0.50;99.90;;;;;;4966737;28;20051;-83
2023/01/21 10:18:30;;;;;;;44.90;18.77;;;0.50;99.90;;;;;;4985507;28;20052;-83
2023/01/21 10:21:28;;;;;;;43.17;17.83;;;0.60;99.90;;;;;;4969000;28;20050;-83
2023/01/21 10:24:03;;;;;;;44.47;18.10;;;0.70;99.90;;;;;;4960552;28;20046;-84
2023/01/21 10:26:32;;;;;;;41.83;17.60;;;0.70;99.90;;;;;;4962846;28;20047;-84
2023/01/21 10:28:58;;;;;;;40.33;18.13;;;0.70;99.90;;;;;;4964867;28;20097;-84
2023/01/21 10:31:31;;;;;;;44.63;18.70;;;0.70;99.90;;;;;;4966948;28;20043;-84
2023/01/21 10:33:57;;;;;;;44.57;18.37;;;0.80;99.90;;;;;;4990638;28;20053;-84
2023/01/21 10:36:45;;;;;;;45.93;19.80;;;0.80;99.90;;;;;;4994764;28;20050;-84
2023/01/21 10:39:40;;;;;;;47.17;19.70;;;0.90;99.90;;;;;;4961781;28;20129;-84
2023/01/21 10:42:15;;;;;;;44.70;18.70;;;0.80;99.90;;;;;;4966483;28;20060;-84
2023/01/21 10:45:01;;;;;;;43.50;18.60;;;0.90;99.90;;;;;;4965656;28;20054;-84
2023/01/21 10:47:55;;;;;;;47.80;20.63;;;0.90;99.90;;;;;;4963087;28;20089;-83
2023/01/21 10:50:25;;;;;;;42.80;18.73;;;1.00;99.90;;;;;;4928120;28;20387;-83
2023/01/21 10:52:59;;;;;;;44.63;19.37;;;1.10;99.90;;;;;;4982384;23;20047;-83
2023/01/21 10:55:27;;;;;;;;;;;1.10;99.90;;;;;;4984052;28;20570;-83
2023/01/21 10:58:19;;;;;;;41.43;19.30;;;1.20;99.90;;;;;;4965015;28;20001;-83
2023/01/21 11:01:03;;;;;;;41.03;19.00;;;0.60;99.90;;;;;;4982951;28;20050;-83
2023/01/21 11:03:44;;;;;;;39.22;18.88;;;1.30;99.90;;;;;;4981808;28;20053;-83
2023/01/21 11:06:23;;;;;;;40.73;19.73;;;1.50;99.90;;;;;;4962289;28;20403;-83
2023/01/21 11:09:02;;;;;;;40.50;18.63;;;3.50;99.90;;;;;;4985874;28;20038;-82
2023/01/21 11:11:34;;;;;;;38.33;18.17;;;2.00;99.90;;;;;;4979755;28;20127;-82
2023/01/21 11:14:00;;;;;;;39.10;18.07;;;2.30;99.90;;;;;;4969868;28;20402;-82
2023/01/21 11:16:45;;;;;;;38.50;17.57;;;2.20;99.90;;;;;;4981646;28;20050;-82
2023/01/21 11:19:14;;;;;;;37.63;17.67;;;2.10;99.90;;;;;;4978182;28;20153;-82
2023/01/21 11:21:55;;;;;;;39.77;17.93;;;2.10;99.90;;;;;;4982738;28;20498;-82
2023/01/21 11:24:23;;;;;;;39.43;19.07;;;2.10;99.90;;;;;;4980539;28;20431;-82
2023/01/21 11:26:54;;;;;;;37.77;17.60;;;2.20;99.90;;;;;;4962956;28;20043;-82
2023/01/21 11:32:09;;;;;;;35.57;16.87;;;2.60;99.90;;;;;;4961992;28;20039;-83
2023/01/21 11:35:01;;;;;;;37.10;19.07;;;2.70;99.90;;;;;;4946104;28;20050;-83
2023/01/21 11:37:29;;;;;;;36.33;16.87;;;2.60;99.90;;;;;;4945443;28;20047;-83
2023/01/21 11:40:10;;;;;;;39.03;17.83;;;2.50;99.90;;;;;;4943576;28;20093;-83
2023/01/21 11:42:53;;;;;;;36.00;16.73;;;2.50;99.90;;;;;;4960845;28;20048;-83
2023/01/21 11:45:35;;;;;;;36.73;19.20;;;2.50;99.90;;;;;;4971183;28;20127;-82
2023/01/21 11:48:13;;;;;;;34.33;17.47;;;2.50;99.90;;;;;;4966737;28;20054;-81
2023/01/21 11:50:38;;;;;;;35.50;18.13;;;2.60;99.90;;;;;;5002572;22;20050;-83
2023/01/21 11:53:11;;;;;;;36.27;19.53;;;2.70;99.90;;;;;;4996221;28;20057;-82
2023/01/21 11:55:52;;;;;;;37.30;19.00;;;3.90;99.90;;;;;;4995407;28;20466;-82
2023/01/21 11:58:27;;;;;;;38.60;17.13;;;2.60;99.90;;;;;;5013857;28;20045;-82
2023/01/21 12:00:55;;;;;;;35.60;17.60;;;2.40;99.90;;;;;;5004719;28;20100;-82
2023/01/21 12:03:26;;;;;;;37.47;18.20;;;2.30;99.90;;;;;;4994293;28;20391;-82
2023/01/21 12:05:54;;;;;;;36.90;19.00;;;3.00;99.90;;;;;;4994495;28;20092;-82
2023/01/21 12:08:25;;;;;;;36.97;18.80;;;3.00;99.90;;;;;;4978281;28;20038;-81
2023/01/21 12:10:53;;;;;;;36.37;17.70;;;2.20;99.90;;;;;;5016183;28;20144;-80
2023/01/21 12:13:34;;;;;;;37.13;17.93;;;2.20;99.90;;;;;;4999492;28;20401;-80
2023/01/21 12:16:05;;;;;;;35.73;18.00;;;2.30;99.90;;;;;;5000776;28;20386;-81
2023/01/21 12:19:07;;;;;;;37.40;18.67;;;3.20;99.90;;;;;;5014254;28;20046;-81
2023/01/21 12:21:54;;;;;;;37.53;18.70;;;2.40;99.90;;;;;;5024855;28;20049;-81
2023/01/21 12:24:57;;;;;;;33.20;16.90;;;2.80;99.90;;;;;;5018433;28;20045;-84
2023/01/21 12:27:58;;;;;;;35.33;17.03;;;3.00;99.90;;;;;;5001209;28;20046;-82
2023/01/21 12:30:35;;;;;;;32.10;16.17;;;3.10;99.90;;;;;;4996117;28;20049;-81
2023/01/21 12:33:07;;;;;;;29.67;14.93;;;3.20;99.90;;;;;;4993206;28;20052;-82
2023/01/21 12:35:52;;;;;;;29.97;15.00;;;3.20;99.90;;;;;;4981222;28;20050;-81
2023/01/21 12:38:20;;;;;;;31.63;16.17;;;3.10;99.90;;;;;;5003083;28;20038;-81
2023/01/21 12:40:58;;;;;;;29.43;16.10;;;3.10;99.90;;;;;;5004724;28;20137;-82
2023/01/21 12:43:41;;;;;;;32.63;17.00;;;3.10;99.90;;;;;;5012025;28;20402;-82
2023/01/21 12:46:19;;;;;;;34.57;17.20;;;3.00;99.90;;;;;;4995713;28;20058;-81
2023/01/21 12:48:54;;;;;;;34.77;17.80;;;2.90;99.90;;;;;;4995643;28;20049;-82
2023/01/21 12:51:25;;;;;;;32.20;17.40;;;2.80;99.90;;;;;;5011801;28;20157;-82
2023/01/21 12:54:18;;;;;;;33.47;17.37;;;3.20;99.90;;;;;;5011670;28;20375;-81
2023/01/21 12:56:58;;;;;;;34.77;17.77;;;2.80;99.90;;;;;;4986424;28;20086;-81
2023/01/21 12:59:31;;;;;;;35.50;17.90;;;2.80;99.90;;;;;;5012376;28;20484;-82
2023/01/21 13:02:19;;;;;;;34.73;17.73;;;2.80;99.90;;;;;;4997802;28;20096;-81
2023/01/21 13:05:03;;;;;;;32.07;17.27;;;2.80;99.90;;;;;;5018393;28;20099;-81
2023/01/21 13:07:50;;;;;;;31.75;16.20;;;2.80;99.90;;;;;;5014629;28;20053;-82
2023/01/21 13:10:22;;;;;;;33.17;17.50;;;2.80;99.90;;;;;;4995371;28;20112;-82
2023/01/21 13:13:35;;;;;;;35.03;18.50;;;2.80;99.90;;;;;;5012111;28;20104;-82
2023/01/21 13:16:05;;;;;;;32.27;16.80;;;2.80;99.90;;;;;;5008506;28;20054;-81
2023/01/21 13:18:46;;;;;;;32.90;17.53;;;2.80;99.90;;;;;;4994640;28;20144;-82
2023/01/21 13:21:39;;;;;;;31.27;15.77;;;2.80;99.90;;;;;;4994835;28;20041;-82
2023/01/21 13:24:46;;;;;;;32.30;16.40;;;2.80;99.90;;;;;;4986739;28;20053;-82
2023/01/21 13:27:22;;;;;;;30.77;17.10;;;2.80;99.90;;;;;;4960036;28;20057;-82
2023/01/21 13:30:36;;;;;;;32.37;17.13;;;2.80;99.90;;;;;;5008909;28;20043;-82
2023/01/21 13:33:12;;;;;;;33.17;17.43;;;2.80;99.90;;;;;;5009514;28;20544;-83
2023/01/21 13:35:50;;;;;;;32.47;17.03;;;2.70;99.90;;;;;;4997709;28;20181;-82
2023/01/21 13:38:24;;;;;;;31.47;16.70;;;2.70;99.90;;;;;;4988883;28;20048;-82